createdAt,value
2018-12-19T00:00:25.665Z,95.86
2018-12-19T00:02:51.381Z,95.65
2018-12-19T00:05:17.102Z,96.44
2018-12-19T00:07:42.839Z,95.73
2018-12-19T00:10:08.549Z,95.83
2018-12-19T00:12:34.491Z,95.68
2018-12-19T00:15:00.219Z,96.44
2018-12-19T00:17:25.939Z,95.47
2018-12-19T00:19:51.653Z,96.35
2018-12-19T00:22:17.375Z,96.30
2018-12-19T00:24:49.982Z,96.48
2018-12-19T00:27:15.708Z,96.00
2018-12-19T00:29:41.427Z,95.79
2018-12-19T00:32:07.159Z,96.16
2018-12-19T00:34:32.879Z,95.64
2018-12-19T00:36:58.618Z,95.82
2018-12-19T00:39:24.339Z,96.58
2018-12-19T00:41:50.059Z,95.54
2018-12-19T00:44:15.915Z,96.29
2018-12-19T00:46:41.755Z,95.55
2018-12-19T00:49:07.479Z,96.44
2018-12-19T00:51:33.300Z,95.46
2018-12-19T00:53:59.015Z,96.20
2018-12-19T00:56:24.747Z,95.80
2018-12-19T00:58:50.475Z,95.76
2018-12-19T01:01:16.326Z,96.12
2018-12-19T01:03:42.062Z,95.42
2018-12-19T01:06:07.888Z,95.94
2018-12-19T01:08:33.606Z,95.27
2018-12-19T01:10:59.325Z,96.09
2018-12-19T01:13:25.055Z,95.99
2018-12-19T01:15:50.871Z,95.36
2018-12-19T01:18:16.752Z,95.96
2018-12-19T01:20:42.480Z,95.22
2018-12-19T01:23:08.228Z,95.20
2018-12-19T01:25:34.058Z,95.57
2018-12-19T01:27:59.794Z,95.61
2018-12-19T01:30:25.611Z,95.64
2018-12-19T01:32:51.347Z,95.05
2018-12-19T01:35:17.062Z,95.14
2018-12-19T01:37:42.785Z,94.83
2018-12-19T01:40:08.494Z,94.61
2018-12-19T01:42:34.221Z,95.53
2018-12-19T01:44:59.938Z,95.69
2018-12-19T01:47:25.701Z,94.91
2018-12-19T01:49:51.422Z,94.99
2018-12-19T01:52:24.288Z,94.89
2018-12-19T01:54:50.023Z,94.70
2018-12-19T01:57:15.729Z,95.33
2018-12-19T01:59:41.468Z,95.08
2018-12-19T02:02:07.190Z,95.17
2018-12-19T02:04:32.907Z,95.29
2018-12-19T02:06:58.714Z,94.34
2018-12-19T02:09:28.843Z,94.63
2018-12-19T02:11:52.261Z,95.71
2018-12-19T02:14:17.994Z,94.37
2018-12-19T02:16:43.818Z,95.48
2018-12-19T02:19:09.564Z,95.67
2018-12-19T02:21:35.377Z,95.20
2018-12-19T02:24:01.110Z,95.32
2018-12-19T02:26:26.938Z,94.21
2018-12-19T02:28:52.771Z,94.39
2018-12-19T02:31:18.490Z,95.12
2018-12-19T02:33:44.236Z,94.63
2018-12-19T02:36:09.961Z,94.60
2018-12-19T02:38:35.678Z,93.89
2018-12-19T02:41:01.402Z,94.38
2018-12-19T02:43:27.223Z,93.98
2018-12-19T02:45:52.970Z,93.63
2018-12-19T02:48:18.693Z,94.52
2018-12-19T02:50:44.630Z,93.63
2018-12-19T02:53:10.455Z,93.95
2018-12-19T02:55:36.175Z,94.02
2018-12-19T02:58:01.909Z,94.39
2018-12-19T03:00:27.634Z,93.35
2018-12-19T03:02:53.475Z,93.43
2018-12-19T03:05:19.301Z,93.30
2018-12-19T03:07:45.024Z,93.30
2018-12-19T03:10:10.866Z,92.97
2018-12-19T03:12:36.689Z,92.98
2018-12-19T03:15:02.925Z,93.58
2018-12-19T03:17:28.650Z,93.55
2018-12-19T03:19:54.384Z,93.13
2018-12-19T03:22:20.105Z,93.62
2018-12-19T03:24:45.839Z,92.58
2018-12-19T03:27:11.546Z,93.64
2018-12-19T03:29:37.253Z,93.50
2018-12-19T03:32:03.089Z,93.53
2018-12-19T03:34:28.898Z,92.84
2018-12-19T03:36:54.620Z,92.69
2018-12-19T03:39:20.430Z,92.96
2018-12-19T03:41:46.258Z,93.15
2018-12-19T03:44:11.984Z,92.97
2018-12-19T03:46:37.732Z,93.63
2018-12-19T03:49:03.449Z,93.35
2018-12-19T03:51:29.184Z,92.65
2018-12-19T03:53:55.019Z,93.68
2018-12-19T03:56:20.858Z,93.57
2018-12-19T03:58:46.670Z,93.56
2018-12-19T04:01:12.405Z,92.99
2018-12-19T04:03:38.122Z,92.86
2018-12-19T04:06:03.867Z,92.96
2018-12-19T04:08:29.591Z,93.92
2018-12-19T04:10:55.325Z,92.82
2018-12-19T04:13:21.063Z,92.82
2018-12-19T04:15:46.791Z,93.72
2018-12-19T04:18:12.619Z,93.03
2018-12-19T04:20:38.351Z,93.34
2018-12-19T04:23:04.078Z,92.71
2018-12-19T04:25:29.806Z,92.53
2018-12-19T04:27:55.543Z,92.89
2018-12-19T04:30:21.259Z,93.20
2018-12-19T04:32:47.292Z,93.32
2018-12-19T04:35:13.003Z,92.89
2018-12-19T04:37:38.747Z,93.39
2018-12-19T04:40:05.814Z,93.16
2018-12-19T04:42:32.038Z,92.84
2018-12-19T04:44:57.854Z,92.42
2018-12-19T04:47:23.606Z,92.71
2018-12-19T04:49:49.335Z,92.37
2018-12-19T04:52:15.080Z,93.52
2018-12-19T04:54:40.915Z,92.33
2018-12-19T04:57:06.655Z,93.38
2018-12-19T04:59:32.455Z,93.11
2018-12-19T05:01:58.170Z,93.30
2018-12-19T05:04:23.884Z,93.18
2018-12-19T05:06:49.606Z,93.19
2018-12-19T05:09:15.314Z,92.78
2018-12-19T05:11:41.131Z,93.17
2018-12-19T05:14:06.982Z,93.53
2018-12-19T05:16:32.794Z,92.52
2018-12-19T05:18:58.602Z,92.95
2018-12-19T05:21:24.302Z,92.53
2018-12-19T05:23:50.011Z,92.84
2018-12-19T05:26:15.714Z,92.80
2018-12-19T05:28:41.418Z,92.01
2018-12-19T05:31:07.118Z,92.33
2018-12-19T05:33:32.822Z,92.04
2018-12-19T05:35:58.521Z,92.26
2018-12-19T05:38:24.229Z,92.78
2018-12-19T05:40:50.030Z,92.64
2018-12-19T05:43:15.746Z,92.88
2018-12-19T05:45:41.475Z,91.94
2018-12-19T05:48:07.197Z,92.06
2018-12-19T05:50:33.115Z,92.00
2018-12-19T05:52:58.938Z,91.53
2018-12-19T05:55:24.754Z,91.62
2018-12-19T05:57:50.571Z,92.45
2018-12-19T06:00:16.395Z,92.10
2018-12-19T06:02:42.203Z,92.31
2018-12-19T06:05:08.018Z,92.67
2018-12-19T06:07:33.736Z,91.79
2018-12-19T06:09:59.449Z,91.27
2018-12-19T06:12:25.263Z,92.10
2018-12-19T06:14:50.982Z,92.30
2018-12-19T06:17:23.748Z,91.38
2018-12-19T06:19:56.467Z,92.09
2018-12-19T06:22:22.185Z,91.26
2018-12-19T06:24:47.900Z,91.40
2018-12-19T06:27:13.715Z,90.99
2018-12-19T06:29:39.435Z,91.17
2018-12-19T06:32:05.234Z,91.93
2018-12-19T06:34:30.942Z,91.06
2018-12-19T06:36:56.646Z,92.08
2018-12-19T06:39:22.498Z,91.90
2018-12-19T06:41:48.315Z,91.66
2018-12-19T06:44:14.033Z,90.88
2018-12-19T06:46:39.846Z,91.76
2018-12-19T06:49:05.645Z,91.66
2018-12-19T06:51:31.346Z,91.00
2018-12-19T06:53:57.051Z,90.52
2018-12-19T06:56:22.751Z,90.47
2018-12-19T06:58:48.465Z,91.48
2018-12-19T07:01:14.274Z,91.02
2018-12-19T07:03:40.007Z,90.88
2018-12-19T07:06:05.813Z,90.85
2018-12-19T07:08:31.626Z,91.05
2018-12-19T07:10:57.348Z,91.29
2018-12-19T07:13:23.053Z,90.57
2018-12-19T07:15:48.776Z,91.26
2018-12-19T07:18:14.467Z,90.24
2018-12-19T07:20:40.178Z,90.77
2018-12-19T07:23:05.878Z,90.27
2018-12-19T07:25:31.598Z,90.74
2018-12-19T07:28:04.568Z,90.76
2018-12-19T07:30:30.287Z,90.17
2018-12-19T07:32:55.985Z,91.16
2018-12-19T07:35:23.858Z,90.32
2018-12-19T07:37:49.567Z,90.03
2018-12-19T07:40:15.374Z,90.67
2018-12-19T07:42:41.083Z,90.89
2018-12-19T07:45:06.908Z,90.05
2018-12-19T07:47:32.626Z,90.84
2018-12-19T07:49:58.321Z,90.61
2018-12-19T07:52:24.133Z,89.98
2018-12-19T07:54:49.973Z,90.54
2018-12-19T07:57:15.777Z,90.18
2018-12-19T07:59:41.593Z,89.80
2018-12-19T08:02:07.410Z,89.49
2018-12-19T08:04:33.434Z,89.73
2018-12-19T08:06:59.146Z,90.55
2018-12-19T08:09:24.852Z,90.37
2018-12-19T08:11:50.664Z,90.72
2018-12-19T08:14:16.370Z,90.61
2018-12-19T08:16:42.091Z,90.81
2018-12-19T08:19:07.998Z,90.33
2018-12-19T08:21:33.706Z,90.05
2018-12-19T08:23:59.410Z,89.66
2018-12-19T08:26:25.126Z,90.23
2018-12-19T08:28:51.042Z,89.48
2018-12-19T08:31:16.865Z,90.17
2018-12-19T08:33:42.570Z,89.61
2018-12-19T08:36:15.291Z,89.57
2018-12-19T08:38:47.954Z,90.23
2018-12-19T08:41:13.776Z,89.30
2018-12-19T08:43:39.689Z,89.93
2018-12-19T08:46:05.522Z,90.10
2018-12-19T08:48:31.339Z,89.10
2018-12-19T08:50:57.154Z,88.93
2018-12-19T08:53:29.975Z,90.03
2018-12-19T08:55:55.694Z,89.08
2018-12-19T08:58:21.411Z,89.26
2018-12-19T09:00:49.237Z,89.15
2018-12-19T09:03:15.150Z,89.58
2018-12-19T09:05:41.598Z,89.82
2018-12-19T09:08:07.478Z,89.83
2018-12-19T09:10:33.287Z,89.96
2018-12-19T09:12:58.987Z,89.08
2018-12-19T09:15:30.906Z,89.40
2018-12-19T09:17:56.625Z,89.50
2018-12-19T09:20:22.455Z,88.79
2018-12-19T09:22:48.274Z,88.71
2018-12-19T09:25:14.075Z,88.36
2018-12-19T09:27:39.890Z,88.85
2018-12-19T09:30:05.695Z,88.20
2018-12-19T09:32:31.410Z,88.24
2018-12-19T09:34:57.214Z,88.68
2018-12-19T09:37:22.934Z,88.78
2018-12-19T09:39:48.638Z,87.86
2018-12-19T09:42:14.363Z,87.72
2018-12-19T09:44:40.070Z,88.48
2018-12-19T09:47:06.661Z,87.74
2018-12-19T09:49:32.501Z,88.79
2018-12-19T09:51:58.262Z,87.58
2018-12-19T09:54:24.073Z,88.53
2018-12-19T09:56:49.778Z,88.05
2018-12-19T09:59:15.495Z,88.73
2018-12-19T10:01:41.210Z,89.21
2018-12-19T10:04:07.029Z,88.76
2018-12-19T10:06:32.755Z,89.15
2018-12-19T10:08:58.470Z,88.11
2018-12-19T10:11:24.171Z,87.83
2018-12-19T10:13:49.874Z,87.40
2018-12-19T10:16:15.680Z,87.52
2018-12-19T10:18:41.386Z,87.82
2018-12-19T10:21:07.187Z,88.90
2018-12-19T10:23:32.934Z,89.04
2018-12-19T10:26:04.649Z,88.74
2018-12-19T10:28:33.021Z,88.35
2018-12-19T10:30:58.831Z,88.41
2018-12-19T10:33:31.597Z,88.27
2018-12-19T10:35:57.511Z,89.25
2018-12-19T10:38:23.334Z,88.82
2018-12-19T10:40:49.146Z,88.88
2018-12-19T10:43:14.954Z,88.91
2018-12-19T10:45:40.655Z,89.94
2018-12-19T10:48:06.394Z,89.47
2018-12-19T10:50:33.006Z,88.92
2018-12-19T10:52:58.715Z,89.08
2018-12-19T10:55:24.418Z,89.33
2018-12-19T10:57:57.223Z,89.38
2018-12-19T11:00:29.124Z,90.19
2018-12-19T11:02:54.840Z,90.05
2018-12-19T11:05:20.662Z,89.24
2018-12-19T11:07:46.365Z,89.77
2018-12-19T11:10:12.094Z,89.94
2018-12-19T11:12:37.796Z,89.86
2018-12-19T11:15:04.427Z,89.52
2018-12-19T11:17:30.130Z,89.67
2018-12-19T11:19:55.858Z,90.19
2018-12-19T11:22:21.663Z,90.44
2018-12-19T11:24:47.401Z,90.51
2018-12-19T11:27:13.110Z,90.28
2018-12-19T11:29:38.824Z,89.28
2018-12-19T11:32:04.537Z,89.84
2018-12-19T11:34:30.258Z,89.37
2018-12-19T11:36:56.078Z,89.80
2018-12-19T11:39:21.798Z,89.90
2018-12-19T11:41:47.521Z,90.44
2018-12-19T11:44:13.239Z,89.73
2018-12-19T11:46:38.964Z,90.32
2018-12-19T11:49:04.894Z,89.98
2018-12-19T11:51:30.614Z,90.38
2018-12-19T11:53:56.332Z,90.62
2018-12-19T11:56:22.262Z,91.58
2018-12-19T11:58:48.062Z,91.57
2018-12-19T12:01:13.874Z,91.68
2018-12-19T12:03:39.576Z,91.89
2018-12-19T12:06:05.292Z,91.94
2018-12-19T12:08:30.994Z,91.39
2018-12-19T12:10:56.806Z,92.58
2018-12-19T12:13:22.519Z,92.87
2018-12-19T12:15:48.235Z,92.90
2018-12-19T12:18:13.953Z,93.21
2018-12-19T12:20:39.674Z,92.78
2018-12-19T12:23:05.372Z,93.35
2018-12-19T12:25:31.198Z,93.32
2018-12-19T12:27:56.898Z,93.27
2018-12-19T12:30:22.615Z,93.51
2018-12-19T12:32:48.329Z,94.15
2018-12-19T12:35:14.191Z,93.55
2018-12-19T12:37:39.902Z,94.27
2018-12-19T12:40:07.326Z,93.49
2018-12-19T12:42:33.053Z,94.11
2018-12-19T12:44:59.074Z,94.38
2018-12-19T12:47:25.026Z,94.52
2018-12-19T12:49:50.734Z,94.15
2018-12-19T12:52:16.447Z,95.16
2018-12-19T12:54:42.150Z,94.58
2018-12-19T12:57:07.978Z,94.34
2018-12-19T12:59:33.695Z,95.43
2018-12-19T13:01:59.408Z,95.25
2018-12-19T13:04:25.109Z,95.46
2018-12-19T13:06:50.906Z,94.87
2018-12-19T13:09:16.614Z,95.09
2018-12-19T13:11:42.339Z,95.52
2018-12-19T13:14:08.146Z,94.80
2018-12-19T13:16:33.874Z,95.76
2018-12-19T13:18:59.578Z,94.98
2018-12-19T13:21:25.319Z,95.17
2018-12-19T13:23:51.091Z,95.32
2018-12-19T13:26:16.997Z,96.34
2018-12-19T13:28:42.821Z,96.28
2018-12-19T13:31:08.635Z,95.96
2018-12-19T13:33:34.478Z,96.36
2018-12-19T13:36:00.329Z,96.37
2018-12-19T13:38:26.338Z,95.36
2018-12-19T13:40:52.055Z,96.74
2018-12-19T13:43:17.794Z,96.20
2018-12-19T13:45:43.765Z,95.92
2018-12-19T13:48:09.537Z,96.10
2018-12-19T13:50:35.254Z,96.10
2018-12-19T13:53:01.071Z,96.09
2018-12-19T13:55:26.778Z,96.93
2018-12-19T13:57:52.500Z,96.87
2018-12-19T14:00:19.222Z,96.24
2018-12-19T14:02:45.047Z,96.22
2018-12-19T14:05:10.855Z,96.61
2018-12-19T14:07:36.570Z,96.13
2018-12-19T14:10:03.207Z,97.21
2018-12-19T14:12:29.027Z,96.91
2018-12-19T14:14:54.730Z,96.29
2018-12-19T14:17:20.426Z,97.17
2018-12-19T14:19:46.137Z,96.70
2018-12-19T14:22:11.845Z,96.68
2018-12-19T14:24:37.562Z,97.04
2018-12-19T14:27:03.381Z,97.35
2018-12-19T14:29:29.198Z,96.71
2018-12-19T14:31:54.900Z,97.11
2018-12-19T14:34:20.623Z,96.46
2018-12-19T14:36:46.342Z,96.66
2018-12-19T14:39:12.046Z,96.43
2018-12-19T14:41:37.869Z,97.45
2018-12-19T14:44:03.905Z,97.47
2018-12-19T14:46:29.630Z,96.70
2018-12-19T14:48:55.355Z,96.47
2018-12-19T14:51:21.181Z,97.35
2018-12-19T14:53:47.010Z,96.64
2018-12-19T14:56:12.715Z,96.57
2018-12-19T14:58:38.546Z,97.49
2018-12-19T15:01:04.449Z,97.28
2018-12-19T15:03:30.178Z,97.44
2018-12-19T15:05:55.979Z,97.46
2018-12-19T15:08:21.906Z,97.57
2018-12-19T15:10:47.719Z,97.36
2018-12-19T15:13:13.540Z,96.60
2018-12-19T15:15:39.270Z,97.74
2018-12-19T15:18:04.980Z,97.63
2018-12-19T15:20:30.691Z,97.67
2018-12-19T15:22:56.398Z,97.67
2018-12-19T15:25:22.221Z,97.12
2018-12-19T15:27:47.930Z,96.72
2018-12-19T15:30:13.641Z,97.54
2018-12-19T15:32:39.764Z,97.18
2018-12-19T15:35:05.694Z,97.67
2018-12-19T15:37:31.540Z,97.32
2018-12-19T15:39:57.255Z,96.56
2018-12-19T15:42:22.963Z,96.53
2018-12-19T15:44:48.687Z,97.73
2018-12-19T15:47:14.422Z,97.22
2018-12-19T15:52:12.686Z,96.91
2018-12-19T15:54:38.397Z,96.57
2018-12-19T15:57:04.106Z,97.24
2018-12-19T15:59:29.915Z,96.53
2018-12-19T16:01:55.622Z,97.38
2018-12-19T16:04:21.334Z,96.87
2018-12-19T16:06:47.156Z,96.51
2018-12-19T16:09:12.870Z,96.27
2018-12-19T16:11:38.693Z,97.23
2018-12-19T16:14:04.506Z,97.16
2018-12-19T16:16:30.223Z,96.70
2018-12-19T16:18:56.050Z,96.85
2018-12-19T16:21:21.866Z,97.10
2018-12-19T16:23:47.586Z,97.12
2018-12-19T16:26:13.407Z,96.77
2018-12-19T16:28:39.122Z,97.24
2018-12-19T16:31:04.938Z,96.54
2018-12-19T16:33:30.844Z,96.89
2018-12-19T16:35:56.576Z,97.30
2018-12-19T16:38:22.401Z,97.18
2018-12-19T16:40:48.191Z,97.18
2018-12-19T16:43:14.279Z,96.55
2018-12-19T16:45:40.533Z,96.59
2018-12-19T16:48:11.819Z,95.99
2018-12-19T16:50:37.639Z,96.65
2018-12-19T16:53:03.348Z,96.80
2018-12-19T16:55:29.181Z,96.82
2018-12-19T16:57:54.889Z,95.86
2018-12-19T17:00:20.621Z,95.37
2018-12-19T17:02:46.637Z,95.97
2018-12-19T17:05:12.434Z,95.91
2018-12-19T17:07:38.731Z,96.22
2018-12-19T17:10:05.095Z,96.49
2018-12-19T17:12:30.814Z,96.95
2018-12-19T17:14:57.141Z,96.68
2018-12-19T17:17:22.900Z,96.87
2018-12-19T17:19:48.779Z,96.78
2018-12-19T17:22:14.934Z,95.89
2018-12-19T17:24:40.820Z,96.27
2018-12-19T17:27:06.735Z,96.36
2018-12-19T17:29:32.466Z,96.38
2018-12-19T17:31:58.599Z,96.43
2018-12-19T17:34:24.926Z,97.24
2018-12-19T17:36:50.948Z,96.54
2018-12-19T17:39:16.666Z,97.35
2018-12-19T17:41:42.379Z,97.25
2018-12-19T17:44:08.098Z,97.10
2018-12-19T17:46:33.826Z,96.75
2018-12-19T17:48:59.535Z,96.41
2018-12-19T17:51:25.249Z,96.57
2018-12-19T17:53:51.237Z,97.26
2018-12-19T17:56:17.076Z,96.67
2018-12-19T17:58:42.879Z,97.23
2018-12-19T18:01:08.698Z,97.09
2018-12-19T18:03:34.547Z,97.00
2018-12-19T18:06:00.349Z,97.52
2018-12-19T18:08:26.355Z,96.90
2018-12-19T18:10:52.114Z,97.19
2018-12-19T18:13:18.150Z,97.48
2018-12-19T18:15:43.976Z,97.33
2018-12-19T18:18:09.814Z,97.29
2018-12-19T18:20:35.538Z,96.52
2018-12-19T18:23:01.272Z,97.00
2018-12-19T18:25:27.109Z,97.17
2018-12-19T18:27:52.905Z,97.05
2018-12-19T18:30:18.636Z,96.96
2018-12-19T18:32:44.402Z,97.06
2018-12-19T18:35:10.132Z,96.69
2018-12-19T18:37:36.091Z,96.83
2018-12-19T18:40:02.258Z,96.29
2018-12-19T18:42:28.013Z,95.64
2018-12-19T18:44:53.730Z,95.81
2018-12-19T18:47:19.650Z,95.91
2018-12-19T18:49:45.396Z,96.67
2018-12-19T18:52:11.226Z,95.60
2018-12-19T18:54:36.984Z,96.71
2018-12-19T18:57:02.764Z,96.18
2018-12-19T18:59:28.495Z,95.84
2018-12-19T19:01:54.318Z,96.21
2018-12-19T19:04:20.322Z,95.67
2018-12-19T19:06:46.206Z,96.51
2018-12-19T19:09:12.035Z,96.22
2018-12-19T19:11:37.751Z,96.19
2018-12-19T19:14:03.507Z,95.71
2018-12-19T19:16:29.230Z,95.54
2018-12-19T19:18:55.002Z,96.26
2018-12-19T19:21:20.731Z,95.86
2018-12-19T19:23:46.590Z,96.14
2018-12-19T19:26:12.349Z,95.48
2018-12-19T19:28:38.190Z,95.35
2018-12-19T19:31:03.923Z,96.02
2018-12-19T19:33:29.664Z,96.00
2018-12-19T19:35:55.394Z,96.19
2018-12-19T19:38:21.222Z,96.44
2018-12-19T19:40:47.006Z,96.12
2018-12-19T19:43:12.771Z,95.51
2018-12-19T19:45:38.523Z,96.30
2018-12-19T19:48:04.349Z,96.05
2018-12-19T19:50:30.091Z,95.85
2018-12-19T19:52:55.809Z,96.13
2018-12-19T19:55:21.544Z,95.18
2018-12-19T19:57:47.260Z,95.99
2018-12-19T20:00:13.092Z,96.00
2018-12-19T20:02:38.913Z,95.13
2018-12-19T20:05:04.956Z,96.14
2018-12-19T20:07:30.672Z,95.15
2018-12-19T20:09:56.495Z,95.76
2018-12-19T20:12:22.342Z,94.88
2018-12-19T20:14:48.175Z,95.04
2018-12-19T20:17:16.018Z,94.88
2018-12-19T20:19:41.745Z,95.78
2018-12-19T20:22:07.601Z,95.88
2018-12-19T20:24:33.487Z,95.79
2018-12-19T20:26:59.314Z,95.89
2018-12-19T20:29:25.181Z,95.80
2018-12-19T20:31:51.035Z,95.56
2018-12-19T20:34:16.788Z,95.56
2018-12-19T20:36:42.617Z,95.27
2018-12-19T20:39:08.335Z,95.66
2018-12-19T20:41:34.069Z,95.79
2018-12-19T20:43:59.783Z,95.89
2018-12-19T20:46:25.523Z,95.24
2018-12-19T20:48:51.271Z,96.28
2018-12-19T20:51:17.010Z,95.07
2018-12-19T20:53:42.831Z,95.06
2018-12-19T20:56:08.688Z,95.59
2018-12-19T20:58:34.514Z,95.65
2018-12-19T21:01:00.363Z,95.35
2018-12-19T21:03:26.081Z,95.91
2018-12-19T21:05:51.802Z,94.53
2018-12-19T21:08:17.531Z,94.52
2018-12-19T21:10:43.263Z,94.53
2018-12-19T21:13:09.084Z,95.41
2018-12-19T21:15:34.906Z,94.87
2018-12-19T21:18:06.907Z,95.38
2018-12-19T21:20:32.646Z,95.11
2018-12-19T21:22:58.362Z,95.05
2018-12-19T21:25:24.087Z,95.54
2018-12-19T21:27:49.916Z,95.00
2018-12-19T21:30:15.653Z,96.10
2018-12-19T21:32:41.366Z,95.48
2018-12-19T21:35:07.221Z,95.64
2018-12-19T21:37:33.053Z,95.31
2018-12-19T21:39:58.883Z,95.42
2018-12-19T21:42:24.617Z,95.54
2018-12-19T21:44:50.435Z,95.78
2018-12-19T21:47:16.385Z,96.46
2018-12-19T21:49:42.346Z,95.87
2018-12-19T21:52:08.162Z,96.16
2018-12-19T21:54:33.986Z,95.46
2018-12-19T21:56:59.836Z,96.04
2018-12-19T21:59:25.632Z,95.63
2018-12-19T22:01:51.422Z,95.13
2018-12-19T22:04:17.282Z,95.59
2018-12-19T22:06:43.136Z,96.05
2018-12-19T22:09:09.099Z,96.53
2018-12-19T22:11:35.151Z,95.54
2018-12-19T22:14:00.963Z,96.50
2018-12-19T22:16:32.982Z,96.20
2018-12-19T22:18:59.438Z,96.62
2018-12-19T22:21:25.183Z,96.11
2018-12-19T22:23:51.005Z,96.54
2018-12-19T22:26:16.910Z,95.90
2018-12-19T22:28:42.702Z,95.99
2018-12-19T22:31:08.462Z,95.61
2018-12-19T22:33:34.467Z,95.77
2018-12-19T22:36:00.427Z,96.04
2018-12-19T22:38:26.221Z,96.24
2018-12-19T22:40:52.042Z,96.22
2018-12-19T22:43:17.787Z,96.25
2018-12-19T22:45:43.595Z,96.44
2018-12-19T22:48:09.424Z,95.74
2018-12-19T22:50:35.311Z,95.72
2018-12-19T22:53:01.430Z,96.21
2018-12-19T22:55:27.249Z,96.04
2018-12-19T22:57:53.047Z,96.13
2018-12-19T23:00:19.111Z,95.95
2018-12-19T23:02:51.275Z,95.78
2018-12-19T23:05:19.146Z,95.56
2018-12-19T23:07:45.042Z,95.33
2018-12-19T23:10:10.795Z,96.25
2018-12-19T23:12:36.634Z,96.07
2018-12-19T23:15:04.358Z,95.26
2018-12-19T23:17:36.095Z,95.88
2018-12-19T23:20:04.700Z,95.09
2018-12-19T23:22:30.946Z,95.69
2018-12-19T23:24:56.911Z,95.60
2018-12-19T23:27:22.730Z,95.76
2018-12-19T23:29:48.464Z,95.54
2018-12-19T23:32:16.275Z,94.49
2018-12-19T23:34:42.064Z,95.85
2018-12-19T23:37:08.005Z,95.16
2018-12-19T23:39:33.862Z,95.41
2018-12-19T23:41:59.786Z,95.33
2018-12-19T23:44:31.082Z,95.40
2018-12-19T23:46:57.788Z,95.65
2018-12-19T23:49:23.595Z,96.49
2018-12-19T23:51:49.320Z,96.22
2018-12-19T23:54:15.109Z,96.81
2018-12-19T23:56:40.869Z,96.43
2018-12-19T23:59:06.630Z,95.70
